Terminal Aerodrome Forecast
Issued by NWS

Home | Current Version | Previous Version | Text Only | Print | Product List | Glossary On
Versions: 1 2 3 4 5 6 7 8 9 10 11 12 13 14 15 16 17 18 19 20
000
FTUS43 KSGF 231722
TAFBBG
TAF
KBBG 231722Z 2318/2418 15010G17KT P6SM SCT120
     FM240300 15009KT P6SM FEW250 WS020/18040KT
     FM241400 17015G27KT P6SM BKN200
     FM241700 18018G29KT P6SM -SHRA BKN035=

USA.gov is the U.S. government's official web portal to all federal, state and local government web resources and services.